sensor_id;sensor_type;location;lat;lon;timestamp;pressure;altitude;pressure_sealevel;temperature;humidity
40574;BME280;26283;49.020;8.644;2022-07-18T00:02:03;99971.47;;;25.50;32.17
40574;BME280;26283;49.020;8.644;2022-07-18T00:04:29;99968.69;;;25.50;31.71
40574;BME280;26283;49.020;8.644;2022-07-18T00:06:54;99972.56;;;25.49;32.00
40574;BME280;26283;49.020;8.644;2022-07-18T00:09:20;99968.47;;;25.46;31.83
40574;BME280;26283;49.020;8.644;2022-07-18T00:11:48;99974.28;;;25.45;32.05
40574;BME280;26283;49.020;8.644;2022-07-18T00:14:14;99970.72;;;25.44;32.23
40574;BME280;26283;49.020;8.644;2022-07-18T00:16:39;99973.75;;;25.43;32.22
40574;BME280;26283;49.020;8.644;2022-07-18T00:19:05;99971.31;;;25.41;31.97
40574;BME280;26283;49.020;8.644;2022-07-18T00:21:31;99974.38;;;25.40;31.85
40574;BME280;26283;49.020;8.644;2022-07-18T00:23:57;99971.91;;;25.38;31.65
40574;BME280;26283;49.020;8.644;2022-07-18T00:26:22;99961.16;;;25.37;32.22
40574;BME280;26283;49.020;8.644;2022-07-18T00:28:47;99963.09;;;25.36;32.09
40574;BME280;26283;49.020;8.644;2022-07-18T00:31:13;99960.97;;;25.33;32.15
40574;BME280;26283;49.020;8.644;2022-07-18T00:33:38;99959.31;;;25.32;32.27
40574;BME280;26283;49.020;8.644;2022-07-18T00:36:04;99962.37;;;25.31;31.89
40574;BME280;26283;49.020;8.644;2022-07-18T00:38:30;99960.75;;;25.30;31.95
40574;BME280;26283;49.020;8.644;2022-07-18T00:40:55;99961.84;;;25.28;32.20
40574;BME280;26283;49.020;8.644;2022-07-18T00:43:21;99961.34;;;25.26;31.93
40574;BME280;26283;49.020;8.644;2022-07-18T00:45:47;99954.16;;;25.25;32.03
40574;BME280;26283;49.020;8.644;2022-07-18T00:48:14;99957.22;;;25.24;32.18
40574;BME280;26283;49.020;8.644;2022-07-18T00:50:40;99959.16;;;25.23;32.21
40574;BME280;26283;49.020;8.644;2022-07-18T00:53:06;99957.53;;;25.22;32.17
40574;BME280;26283;49.020;8.644;2022-07-18T00:55:33;99964.16;;;25.21;32.14
40574;BME280;26283;49.020;8.644;2022-07-18T00:57:59;99966.91;;;25.21;31.83
40574;BME280;26283;49.020;8.644;2022-07-18T01:00:25;99964.44;;;25.20;31.59
40574;BME280;26283;49.020;8.644;2022-07-18T01:03:09;99966.38;;;25.19;32.18
40574;BME280;26283;49.020;8.644;2022-07-18T01:05:35;99968.34;;;25.19;32.13
40574;BME280;26283;49.020;8.644;2022-07-18T01:08:01;99981.31;;;25.18;32.19
40574;BME280;26283;49.020;8.644;2022-07-18T01:10:26;99970.56;;;25.17;32.29
40574;BME280;26283;49.020;8.644;2022-07-18T01:12:52;99977.19;;;25.16;32.22
40574;BME280;26283;49.020;8.644;2022-07-18T01:15:17;99968.91;;;25.16;31.85
40574;BME280;26283;49.020;8.644;2022-07-18T01:17:43;99973.09;;;25.13;31.61
40574;BME280;26283;49.020;8.644;2022-07-18T01:20:09;99964.00;;;25.13;31.93
40574;BME280;26283;49.020;8.644;2022-07-18T01:22:35;99964.00;;;25.13;32.02
40574;BME280;26283;49.020;8.644;2022-07-18T01:25:00;99969.84;;;25.11;32.14
40574;BME280;26283;49.020;8.644;2022-07-18T01:27:26;99966.25;;;25.11;32.19
40574;BME280;26283;49.020;8.644;2022-07-18T01:29:52;99955.53;;;25.09;32.15
40574;BME280;26283;49.020;8.644;2022-07-18T01:32:19;99967.66;;;25.08;32.21
40574;BME280;26283;49.020;8.644;2022-07-18T01:34:46;99966.03;;;25.07;32.45
40574;BME280;26283;49.020;8.644;2022-07-18T01:37:12;99967.16;;;25.06;32.51
40574;BME280;26283;49.020;8.644;2022-07-18T01:39:38;99963.56;;;25.06;32.41
40574;BME280;26283;49.020;8.644;2022-07-18T01:42:06;99971.03;;;25.05;32.59
40574;BME280;26283;49.020;8.644;2022-07-18T01:44:34;99970.50;;;25.03;32.53
40574;BME280;26283;49.020;8.644;2022-07-18T01:47:00;99961.69;;;25.01;32.50
40574;BME280;26283;49.020;8.644;2022-07-18T01:49:27;99971.09;;;25.00;32.26
40574;BME280;26283;49.020;8.644;2022-07-18T01:51:55;99963.94;;;24.99;31.86
40574;BME280;26283;49.020;8.644;2022-07-18T01:54:23;99960.66;;;24.97;31.66
40574;BME280;26283;49.020;8.644;2022-07-18T01:56:49;99961.75;;;24.96;31.81
40574;BME280;26283;49.020;8.644;2022-07-18T01:59:14;99967.81;;;24.93;32.00
40574;BME280;26283;49.020;8.644;2022-07-18T02:01:40;99956.81;;;24.93;32.24
40574;BME280;26283;49.020;8.644;2022-07-18T02:04:05;99952.41;;;24.92;32.24
40574;BME280;26283;49.020;8.644;2022-07-18T02:06:31;99956.28;;;24.91;31.96
40574;BME280;26283;49.020;8.644;2022-07-18T02:08:56;99957.38;;;24.90;31.97
40574;BME280;26283;49.020;8.644;2022-07-18T02:11:22;99957.72;;;24.88;32.16
40574;BME280;26283;49.020;8.644;2022-07-18T02:13:49;99958.31;;;24.85;32.16
40574;BME280;26283;49.020;8.644;2022-07-18T02:16:15;99957.47;;;24.85;32.00
40574;BME280;26283;49.020;8.644;2022-07-18T02:18:40;99961.34;;;24.84;31.73
40574;BME280;26283;49.020;8.644;2022-07-18T02:21:06;99960.81;;;24.82;31.67
40574;BME280;26283;49.020;8.644;2022-07-18T02:23:32;99956.44;;;24.81;31.37
40574;BME280;26283;49.020;8.644;2022-07-18T02:25:58;99959.19;;;24.81;31.55
40574;BME280;26283;49.020;8.644;2022-07-18T02:28:24;99955.91;;;24.79;31.54
40574;BME280;26283;49.020;8.644;2022-07-18T02:30:49;99956.19;;;24.77;31.72
40574;BME280;26283;49.020;8.644;2022-07-18T02:33:15;99960.88;;;24.77;31.77
40574;BME280;26283;49.020;8.644;2022-07-18T02:35:41;99960.34;;;24.75;32.18
40574;BME280;26283;49.020;8.644;2022-07-18T02:38:07;99955.97;;;24.74;32.18
40574;BME280;26283;49.020;8.644;2022-07-18T02:40:33;99954.31;;;24.73;32.24
40574;BME280;26283;49.020;8.644;2022-07-18T02:42:58;99960.94;;;24.72;32.60
40574;BME280;26283;49.020;8.644;2022-07-18T02:45:23;99956.53;;;24.71;32.91
40574;BME280;26283;49.020;8.644;2022-07-18T02:47:49;99949.38;;;24.70;32.79
40574;BME280;26283;49.020;8.644;2022-07-18T02:50:15;99955.22;;;24.68;33.01
40574;BME280;26283;49.020;8.644;2022-07-18T02:52:41;99957.16;;;24.68;32.60
40574;BME280;26283;49.020;8.644;2022-07-18T02:55:08;99959.38;;;24.66;32.72
40574;BME280;26283;49.020;8.644;2022-07-18T02:57:34;99954.16;;;24.64;32.90
40574;BME280;26283;49.020;8.644;2022-07-18T02:59:59;99955.28;;;24.63;32.84
40574;BME280;26283;49.020;8.644;2022-07-18T03:02:25;99959.44;;;24.60;32.91
40574;BME280;26283;49.020;8.644;2022-07-18T03:04:51;99963.31;;;24.59;32.88
40574;BME280;26283;49.020;8.644;2022-07-18T03:07:16;99964.44;;;24.58;33.03
40574;BME280;26283;49.020;8.644;2022-07-18T03:09:41;99961.44;;;24.55;32.86
40574;BME280;26283;49.020;8.644;2022-07-18T03:12:07;99963.37;;;24.54;32.55
40574;BME280;26283;49.020;8.644;2022-07-18T03:14:33;99959.78;;;24.54;32.74
40574;BME280;26283;49.020;8.644;2022-07-18T03:16:58;99959.25;;;24.52;33.15
40574;BME280;26283;49.020;8.644;2022-07-18T03:19:24;99966.72;;;24.51;33.23
40574;BME280;26283;49.020;8.644;2022-07-18T03:21:49;99956.78;;;24.50;33.36
40574;BME280;26283;49.020;8.644;2022-07-18T03:24:15;99958.72;;;24.50;33.30
40574;BME280;26283;49.020;8.644;2022-07-18T03:26:42;99960.12;;;24.47;33.17
40574;BME280;26283;49.020;8.644;2022-07-18T03:29:07;99961.28;;;24.46;33.31
40574;BME280;26283;49.020;8.644;2022-07-18T03:31:33;99959.62;;;24.45;33.46
40574;BME280;26283;49.020;8.644;2022-07-18T03:33:59;99958.81;;;24.45;33.33
40574;BME280;26283;49.020;8.644;2022-07-18T03:36:24;99959.09;;;24.43;33.39
40574;BME280;26283;49.020;8.644;2022-07-18T03:38:50;99962.16;;;24.42;33.29
40574;BME280;26283;49.020;8.644;2022-07-18T03:41:15;99955.28;;;24.39;33.23
40574;BME280;26283;49.020;8.644;2022-07-18T03:43:40;99961.63;;;24.40;33.19
40574;BME280;26283;49.020;8.644;2022-07-18T03:46:07;99955.56;;;24.38;33.35
40574;BME280;26283;49.020;8.644;2022-07-18T03:48:33;99960.28;;;24.37;33.37
40574;BME280;26283;49.020;8.644;2022-07-18T03:51:01;99966.34;;;24.34;33.42
40574;BME280;26283;49.020;8.644;2022-07-18T03:53:27;99960.84;;;24.34;33.47
40574;BME280;26283;49.020;8.644;2022-07-18T03:55:52;99954.81;;;24.32;33.66
40574;BME280;26283;49.020;8.644;2022-07-18T03:58:18;99953.16;;;24.31;33.61
40574;BME280;26283;49.020;8.644;2022-07-18T04:00:43;99953.44;;;24.30;33.73
40574;BME280;26283;49.020;8.644;2022-07-18T04:03:09;99953.75;;;24.28;33.71
40574;BME280;26283;49.020;8.644;2022-07-18T04:05:34;99957.59;;;24.27;33.67
40574;BME280;26283;49.020;8.644;2022-07-18T04:08:00;99954.84;;;24.27;33.75
40574;BME280;26283;49.020;8.644;2022-07-18T04:10:25;99948.81;;;24.25;33.88
40574;BME280;26283;49.020;8.644;2022-07-18T04:12:53;99953.78;;;24.23;34.06
40574;BME280;26283;49.020;8.644;2022-07-18T04:15:20;99959.31;;;24.23;34.27
40574;BME280;26283;49.020;8.644;2022-07-18T04:17:46;99959.31;;;24.23;34.45
40574;BME280;26283;49.020;8.644;2022-07-18T04:20:13;99956.03;;;24.21;34.38
40574;BME280;26283;49.020;8.644;2022-07-18T04:22:51;99962.63;;;24.20;34.37
40574;BME280;26283;49.020;8.644;2022-07-18T04:25:18;99956.59;;;24.18;34.37
40574;BME280;26283;49.020;8.644;2022-07-18T04:27:44;99964.84;;;24.18;34.69
40574;BME280;26283;49.020;8.644;2022-07-18T04:30:10;99965.97;;;24.17;34.71
40574;BME280;26283;49.020;8.644;2022-07-18T04:32:36;99958.81;;;24.16;34.58
40574;BME280;26283;49.020;8.644;2022-07-18T04:35:02;99970.13;;;24.14;34.55
40574;BME280;26283;49.020;8.644;2022-07-18T04:37:29;99966.53;;;24.14;34.35
40574;BME280;26283;49.020;8.644;2022-07-18T04:39:56;99963.25;;;24.12;34.78
40574;BME280;26283;49.020;8.644;2022-07-18T04:42:21;99961.63;;;24.11;34.78
40574;BME280;26283;49.020;8.644;2022-07-18T04:44:47;99959.97;;;24.10;34.74
40574;BME280;26283;49.020;8.644;2022-07-18T04:47:12;99955.56;;;24.09;35.00
40574;BME280;26283;49.020;8.644;2022-07-18T04:49:37;99959.44;;;24.08;35.62
40574;BME280;26283;49.020;8.644;2022-07-18T04:52:03;99955.87;;;24.07;36.04
40574;BME280;26283;49.020;8.644;2022-07-18T04:54:28;99956.16;;;24.06;36.42
40574;BME280;26283;49.020;8.644;2022-07-18T04:56:54;99947.91;;;24.06;36.99
40574;BME280;26283;49.020;8.644;2022-07-18T04:59:19;99951.75;;;24.05;36.79
40574;BME280;26283;49.020;8.644;2022-07-18T05:01:44;99946.56;;;24.03;36.29
40574;BME280;26283;49.020;8.644;2022-07-18T05:04:10;99951.25;;;24.03;36.29
40574;BME280;26283;49.020;8.644;2022-07-18T05:06:35;99951.84;;;24.00;36.33
40574;BME280;26283;49.020;8.644;2022-07-18T05:09:01;99948.25;;;23.99;36.78
40574;BME280;26283;49.020;8.644;2022-07-18T05:11:26;99955.69;;;23.99;36.73
40574;BME280;26283;49.020;8.644;2022-07-18T05:13:51;99961.19;;;23.99;36.68
40574;BME280;26283;49.020;8.644;2022-07-18T05:16:17;99967.81;;;23.98;37.04
40574;BME280;26283;49.020;8.644;2022-07-18T05:18:42;99957.91;;;23.97;37.51
40574;BME280;26283;49.020;8.644;2022-07-18T05:21:07;99947.72;;;23.97;37.78
40574;BME280;26283;49.020;8.644;2022-07-18T05:23:33;99949.94;;;23.95;37.27
40574;BME280;26283;49.020;8.644;2022-07-18T05:25:58;99952.97;;;23.93;37.12
40574;BME280;26283;49.020;8.644;2022-07-18T05:28:24;99959.59;;;23.92;37.33
40574;BME280;26283;49.020;8.644;2022-07-18T05:30:49;99962.34;;;23.92;38.39
40574;BME280;26283;49.020;8.644;2022-07-18T05:33:15;99960.72;;;23.91;38.12
40574;BME280;26283;49.020;8.644;2022-07-18T05:35:40;99966.22;;;23.91;38.42
40574;BME280;26283;49.020;8.644;2022-07-18T05:38:05;99967.31;;;23.90;38.64
40574;BME280;26283;49.020;8.644;2022-07-18T05:40:31;99968.16;;;23.91;39.04
40574;BME280;26283;49.020;8.644;2022-07-18T05:42:56;99969.25;;;23.90;38.88
40574;BME280;26283;49.020;8.644;2022-07-18T05:45:25;99954.66;;;23.89;39.08
40574;BME280;26283;49.020;8.644;2022-07-18T05:47:51;99956.59;;;23.89;39.20
40574;BME280;26283;49.020;8.644;2022-07-18T05:50:17;99954.13;;;23.87;38.09
40574;BME280;26283;49.020;8.644;2022-07-18T05:52:42;99955.78;;;23.88;37.73
40574;BME280;26283;49.020;8.644;2022-07-18T05:55:08;99954.94;;;23.88;37.59
40574;BME280;26283;49.020;8.644;2022-07-18T05:57:34;99956.59;;;23.89;37.74
40574;BME280;26283;49.020;8.644;2022-07-18T06:00:00;99961.56;;;23.87;37.77
40574;BME280;26283;49.020;8.644;2022-07-18T06:02:26;99956.88;;;23.87;37.29
40574;BME280;26283;49.020;8.644;2022-07-18T06:04:51;99949.44;;;23.88;38.50
40574;BME280;26283;49.020;8.644;2022-07-18T06:07:17;99957.72;;;23.88;36.74
40574;BME280;26283;49.020;8.644;2022-07-18T06:09:42;99957.72;;;23.88;37.09
40574;BME280;26283;49.020;8.644;2022-07-18T06:12:08;99964.84;;;23.89;37.32
40574;BME280;26283;49.020;8.644;2022-07-18T06:14:34;99961.00;;;23.90;36.88
40574;BME280;26283;49.020;8.644;2022-07-18T06:16:59;99957.41;;;23.89;36.29
40574;BME280;26283;49.020;8.644;2022-07-18T06:19:25;99951.09;;;23.89;37.30
40574;BME280;26283;49.020;8.644;2022-07-18T06:21:50;99959.06;;;23.90;37.15
40574;BME280;26283;49.020;8.644;2022-07-18T06:24:16;99959.59;;;23.92;38.00
40574;BME280;26283;49.020;8.644;2022-07-18T06:26:41;99957.97;;;23.91;37.33
40574;BME280;26283;49.020;8.644;2022-07-18T06:29:06;99957.66;;;23.93;38.07
40574;BME280;26283;49.020;8.644;2022-07-18T06:31:32;99952.97;;;23.93;37.52
40574;BME280;26283;49.020;8.644;2022-07-18T06:33:57;99948.28;;;23.94;37.55
40574;BME280;26283;49.020;8.644;2022-07-18T06:36:23;99948.00;;;23.96;37.00
40574;BME280;26283;49.020;8.644;2022-07-18T06:38:51;99966.16;;;23.97;38.11
40574;BME280;26283;49.020;8.644;2022-07-18T06:41:17;99960.38;;;23.98;39.68
40574;BME280;26283;49.020;8.644;2022-07-18T06:43:43;99962.03;;;23.99;39.82
40574;BME280;26283;49.020;8.644;2022-07-18T06:46:09;99957.06;;;24.01;39.99
40574;BME280;26283;49.020;8.644;2022-07-18T06:48:34;99968.28;;;24.05;40.41
40574;BME280;26283;49.020;8.644;2022-07-18T06:51:01;99953.41;;;24.06;40.23
40574;BME280;26283;49.020;8.644;2022-07-18T06:53:27;99964.94;;;24.08;39.86
40574;BME280;26283;49.020;8.644;2022-07-18T06:55:53;99962.72;;;24.10;40.20
40574;BME280;26283;49.020;8.644;2022-07-18T06:58:19;99953.34;;;24.11;40.55
40574;BME280;26283;49.020;8.644;2022-07-18T07:00:44;99954.72;;;24.13;40.86
40574;BME280;26283;49.020;8.644;2022-07-18T07:03:09;99963.50;;;24.15;41.10
40574;BME280;26283;49.020;8.644;2022-07-18T07:05:35;99959.62;;;24.16;40.96
40574;BME280;26283;49.020;8.644;2022-07-18T07:08:00;99959.62;;;24.16;40.65
40574;BME280;26283;49.020;8.644;2022-07-18T07:10:26;99957.41;;;24.18;40.91
40574;BME280;26283;49.020;8.644;2022-07-18T07:12:51;99959.06;;;24.19;40.88
40574;BME280;26283;49.020;8.644;2022-07-18T07:15:19;99968.97;;;24.20;40.69
40574;BME280;26283;49.020;8.644;2022-07-18T07:17:45;99960.41;;;24.22;40.27
40574;BME280;26283;49.020;8.644;2022-07-18T07:20:11;99952.97;;;24.22;41.82
40574;BME280;26283;49.020;8.644;2022-07-18T07:22:43;99952.72;;;24.24;41.16
40574;BME280;26283;49.020;8.644;2022-07-18T07:25:09;99947.22;;;24.24;40.11
40574;BME280;26283;49.020;8.644;2022-07-18T07:27:34;99959.84;;;24.25;40.30
40574;BME280;26283;49.020;8.644;2022-07-18T07:30:00;99955.97;;;24.26;40.45
40574;BME280;26283;49.020;8.644;2022-07-18T07:32:25;99957.59;;;24.27;40.73
40574;BME280;26283;49.020;8.644;2022-07-18T07:34:50;99957.31;;;24.29;40.98
40574;BME280;26283;49.020;8.644;2022-07-18T07:37:16;99946.31;;;24.29;41.24
40574;BME280;26283;49.020;8.644;2022-07-18T07:39:41;99951.53;;;24.30;40.95
40574;BME280;26283;49.020;8.644;2022-07-18T07:42:06;99950.41;;;24.31;40.72
40574;BME280;26283;49.020;8.644;2022-07-18T07:44:32;99953.69;;;24.33;40.79
40574;BME280;26283;49.020;8.644;2022-07-18T07:46:57;99950.13;;;24.33;40.51
40574;BME280;26283;49.020;8.644;2022-07-18T07:49:25;99948.72;;;24.35;40.79
40574;BME280;26283;49.020;8.644;2022-07-18T07:51:50;99955.06;;;24.36;40.82
40574;BME280;26283;49.020;8.644;2022-07-18T07:54:15;99952.00;;;24.37;41.15
40574;BME280;26283;49.020;8.644;2022-07-18T07:56:41;99947.84;;;24.40;40.94
40574;BME280;26283;49.020;8.644;2022-07-18T07:59:06;99946.72;;;24.41;41.13
40574;BME280;26283;49.020;8.644;2022-07-18T08:01:32;99952.78;;;24.43;40.34
40574;BME280;26283;49.020;8.644;2022-07-18T08:03:57;99950.53;;;24.45;40.42
40574;BME280;26283;49.020;8.644;2022-07-18T08:06:23;99955.78;;;24.46;40.24
40574;BME280;26283;49.020;8.644;2022-07-18T08:08:49;99950.75;;;24.48;40.45
40574;BME280;26283;49.020;8.644;2022-07-18T08:11:14;99954.34;;;24.49;40.67
40574;BME280;26283;49.020;8.644;2022-07-18T08:13:40;99947.41;;;24.51;41.14
40574;BME280;26283;49.020;8.644;2022-07-18T08:16:05;99942.44;;;24.53;41.06
40574;BME280;26283;49.020;8.644;2022-07-18T08:18:31;99938.28;;;24.56;41.20
40574;BME280;26283;49.020;8.644;2022-07-18T08:20:56;99951.75;;;24.57;39.79
40574;BME280;26283;49.020;8.644;2022-07-18T08:23:21;99955.03;;;24.59;40.47
40574;BME280;26283;49.020;8.644;2022-07-18T08:25:47;99942.31;;;24.64;40.06
40574;BME280;26283;49.020;8.644;2022-07-18T08:28:13;99951.12;;;24.66;40.70
40574;BME280;26283;49.020;8.644;2022-07-18T08:30:39;99939.81;;;24.67;39.25
40574;BME280;26283;49.020;8.644;2022-07-18T08:33:05;99934.78;;;24.69;39.07
40574;BME280;26283;49.020;8.644;2022-07-18T08:35:32;99935.03;;;24.73;38.95
40574;BME280;26283;49.020;8.644;2022-07-18T08:37:58;99924.53;;;24.75;38.39
40574;BME280;26283;49.020;8.644;2022-07-18T08:40:24;99929.44;;;24.78;39.58
40574;BME280;26283;49.020;8.644;2022-07-18T08:42:52;99928.03;;;24.80;39.05
40574;BME280;26283;49.020;8.644;2022-07-18T08:45:22;99927.44;;;24.83;38.77
40574;BME280;26283;49.020;8.644;2022-07-18T08:47:48;99937.88;;;24.86;38.00
40574;BME280;26283;49.020;8.644;2022-07-18T08:50:14;99937.31;;;24.89;38.01
40574;BME280;26283;49.020;8.644;2022-07-18T08:52:39;99930.03;;;24.93;38.11
40574;BME280;26283;49.020;8.644;2022-07-18T08:55:07;99934.19;;;24.96;38.25
40574;BME280;26283;49.020;8.644;2022-07-18T08:57:33;99929.72;;;25.00;38.70
40574;BME280;26283;49.020;8.644;2022-07-18T08:59:58;99934.66;;;25.03;38.65
40574;BME280;26283;49.020;8.644;2022-07-18T09:02:26;99929.66;;;25.05;37.84
40574;BME280;26283;49.020;8.644;2022-07-18T09:04:51;99928.25;;;25.08;37.40
40574;BME280;26283;49.020;8.644;2022-07-18T09:07:30;99927.66;;;25.11;38.53
40574;BME280;26283;49.020;8.644;2022-07-18T09:09:58;99926.19;;;25.13;37.34
40574;BME280;26283;49.020;8.644;2022-07-18T09:12:28;99922.03;;;25.16;37.13
40574;BME280;26283;49.020;8.644;2022-07-18T09:14:56;99915.91;;;25.19;36.95
40574;BME280;26283;49.020;8.644;2022-07-18T09:17:26;99921.66;;;25.22;37.28
40574;BME280;26283;49.020;8.644;2022-07-18T09:20:13;99919.94;;;25.26;36.09
40574;BME280;26283;49.020;8.644;2022-07-18T09:22:44;99921.00;;;25.31;37.30
40574;BME280;26283;49.020;8.644;2022-07-18T09:25:18;99918.44;;;25.34;37.13
40574;BME280;26283;49.020;8.644;2022-07-18T09:27:52;99924.16;;;25.38;36.29
40574;BME280;26283;49.020;8.644;2022-07-18T09:30:24;99916.13;;;25.41;37.55
40574;BME280;26283;49.020;8.644;2022-07-18T09:33:04;99918.28;;;25.44;37.26
40574;BME280;26283;49.020;8.644;2022-07-18T09:35:32;99914.63;;;25.49;37.87
40574;BME280;26283;49.020;8.644;2022-07-18T09:40:32;99910.63;;;25.55;38.18
40574;BME280;26283;49.020;8.644;2022-07-18T09:43:01;99918.31;;;25.58;37.18
40574;BME280;26283;49.020;8.644;2022-07-18T09:45:32;99913.00;;;25.61;36.33
40574;BME280;26283;49.020;8.644;2022-07-18T09:48:01;99905.81;;;25.66;38.31
40574;BME280;26283;49.020;8.644;2022-07-18T09:50:30;99913.50;;;25.69;36.91
40574;BME280;26283;49.020;8.644;2022-07-18T09:53:09;99902.66;;;25.72;36.81
40574;BME280;26283;49.020;8.644;2022-07-18T09:55:35;99900.94;;;25.76;37.20
40574;BME280;26283;49.020;8.644;2022-07-18T09:58:06;99905.81;;;25.79;36.95
40574;BME280;26283;49.020;8.644;2022-07-18T10:00:34;99904.09;;;25.83;37.16
40574;BME280;26283;49.020;8.644;2022-07-18T10:03:02;99896.03;;;25.87;36.81
40574;BME280;26283;49.020;8.644;2022-07-18T10:05:30;99894.31;;;25.91;36.75
40574;BME280;26283;49.020;8.644;2022-07-18T10:07:56;99895.66;;;25.93;36.39
40574;BME280;26283;49.020;8.644;2022-07-18T10:10:22;99906.09;;;25.97;35.29
40574;BME280;26283;49.020;8.644;2022-07-18T10:12:53;99887.75;;;26.01;36.49
40574;BME280;26283;49.020;8.644;2022-07-18T10:15:23;99884.09;;;26.05;36.83
40574;BME280;26283;49.020;8.644;2022-07-18T10:17:49;99892.56;;;26.09;36.01
40574;BME280;26283;49.020;8.644;2022-07-18T10:20:15;99883.69;;;26.12;35.51
40574;BME280;26283;49.020;8.644;2022-07-18T10:22:42;99880.81;;;26.17;35.55
40574;BME280;26283;49.020;8.644;2022-07-18T10:25:10;99885.72;;;26.20;34.99
40574;BME280;26283;49.020;8.644;2022-07-18T10:27:51;99889.50;;;26.24;35.68
40574;BME280;26283;49.020;8.644;2022-07-18T10:30:17;99881.72;;;26.26;34.62
40574;BME280;26283;49.020;8.644;2022-07-18T10:32:44;99878.34;;;26.29;35.54
40574;BME280;26283;49.020;8.644;2022-07-18T10:35:15;99877.78;;;26.32;35.01
40574;BME280;26283;49.020;8.644;2022-07-18T10:37:40;99879.94;;;26.35;35.19
40574;BME280;26283;49.020;8.644;2022-07-18T10:40:26;99869.38;;;26.37;33.84
40574;BME280;26283;49.020;8.644;2022-07-18T10:45:53;99873.97;;;26.42;32.33
40574;BME280;26283;49.020;8.644;2022-07-18T10:51:10;99870.28;;;26.46;34.66
40574;BME280;26283;49.020;8.644;2022-07-18T10:59:22;99870.06;;;26.56;34.46
40574;BME280;26283;49.020;8.644;2022-07-18T11:01:55;99863.13;;;26.59;33.03
40574;BME280;26283;49.020;8.644;2022-07-18T11:04:33;99852.56;;;26.61;33.39
40574;BME280;26283;49.020;8.644;2022-07-18T11:07:23;99851.91;;;26.64;33.82
40574;BME280;26283;49.020;8.644;2022-07-18T11:09:48;99854.88;;;26.68;33.43
40574;BME280;26283;49.020;8.644;2022-07-18T11:12:29;99851.50;;;26.71;34.29
40574;BME280;26283;49.020;8.644;2022-07-18T11:20:23;99843.00;;;26.81;33.97
40574;BME280;26283;49.020;8.644;2022-07-18T11:22:49;99847.09;;;26.83;33.53
40574;BME280;26283;49.020;8.644;2022-07-18T11:25:17;99843.19;;;26.84;35.90
40574;BME280;26283;49.020;8.644;2022-07-18T11:27:43;99838.94;;;26.87;33.99
40574;BME280;26283;49.020;8.644;2022-07-18T11:30:09;99837.19;;;26.91;34.70
40574;BME280;26283;49.020;8.644;2022-07-18T11:32:35;99845.19;;;26.92;31.92
40574;BME280;26283;49.020;8.644;2022-07-18T11:35:00;99835.75;;;26.93;33.54
40574;BME280;26283;49.020;8.644;2022-07-18T11:37:31;99837.12;;;26.96;32.60
40574;BME280;26283;49.020;8.644;2022-07-18T11:40:06;99835.69;;;26.99;32.29
40574;BME280;26283;49.020;8.644;2022-07-18T11:42:37;99840.06;;;27.00;31.51
40574;BME280;26283;49.020;8.644;2022-07-18T11:45:03;99823.16;;;27.01;33.54
40574;BME280;26283;49.020;8.644;2022-07-18T11:47:29;99828.09;;;27.04;33.05
40574;BME280;26283;49.020;8.644;2022-07-18T11:49:55;99823.06;;;27.06;34.48
40574;BME280;26283;49.020;8.644;2022-07-18T11:52:21;99826.59;;;27.07;31.32
40574;BME280;26283;49.020;8.644;2022-07-18T11:54:47;99824.34;;;27.09;33.12
40574;BME280;26283;49.020;8.644;2022-07-18T11:57:12;99820.13;;;27.11;35.13
40574;BME280;26283;49.020;8.644;2022-07-18T11:59:40;99822.59;;;27.13;32.81
40574;BME280;26283;49.020;8.644;2022-07-18T12:02:07;99820.34;;;27.15;33.28
40574;BME280;26283;49.020;8.644;2022-07-18T12:04:33;99823.09;;;27.15;32.75
40574;BME280;26283;49.020;8.644;2022-07-18T12:07:31;99823.59;;;27.17;31.74
40574;BME280;26283;49.020;8.644;2022-07-18T12:09:56;99816.63;;;27.19;34.78
40574;BME280;26283;49.020;8.644;2022-07-18T12:12:23;99811.91;;;27.20;33.27
40574;BME280;26283;49.020;8.644;2022-07-18T12:14:58;99813.53;;;27.21;32.27
40574;BME280;26283;49.020;8.644;2022-07-18T12:17:24;99808.81;;;27.21;30.91
40574;BME280;26283;49.020;8.644;2022-07-18T12:19:50;99809.34;;;27.23;31.22
40574;BME280;26283;49.020;8.644;2022-07-18T12:22:15;99813.75;;;27.24;31.37
40574;BME280;26283;49.020;8.644;2022-07-18T12:24:53;99810.34;;;27.27;34.03
40574;BME280;26283;49.020;8.644;2022-07-18T12:27:36;99807.22;;;27.29;33.35
40574;BME280;26283;49.020;8.644;2022-07-18T12:30:18;99803.34;;;27.30;33.61
40574;BME280;26283;49.020;8.644;2022-07-18T12:32:56;99799.12;;;27.33;34.94
40574;BME280;26283;49.020;8.644;2022-07-18T12:35:22;99801.88;;;27.33;34.57
40574;BME280;26283;49.020;8.644;2022-07-18T12:40:17;99800.75;;;27.34;31.34
40574;BME280;26283;49.020;8.644;2022-07-18T12:42:42;99794.91;;;27.35;31.39
40574;BME280;26283;49.020;8.644;2022-07-18T12:45:10;99797.34;;;27.37;30.75
40574;BME280;26283;49.020;8.644;2022-07-18T12:47:36;99792.31;;;27.39;32.60
40574;BME280;26283;49.020;8.644;2022-07-18T12:50:03;99790.06;;;27.41;35.06
40574;BME280;26283;49.020;8.644;2022-07-18T12:52:28;99787.78;;;27.43;34.06
40574;BME280;26283;49.020;8.644;2022-07-18T12:54:53;99789.44;;;27.44;32.19
40574;BME280;26283;49.020;8.644;2022-07-18T12:57:20;99789.13;;;27.45;33.62
40574;BME280;26283;49.020;8.644;2022-07-18T12:59:46;99788.28;;;27.45;33.33
40574;BME280;26283;49.020;8.644;2022-07-18T13:02:12;99784.06;;;27.47;32.94
40574;BME280;26283;49.020;8.644;2022-07-18T13:04:38;99782.13;;;27.48;30.39
40574;BME280;26283;49.020;8.644;2022-07-18T13:07:03;99788.94;;;27.50;31.50
40574;BME280;26283;49.020;8.644;2022-07-18T13:09:29;99788.94;;;27.50;29.84
40574;BME280;26283;49.020;8.644;2022-07-18T13:11:54;99781.97;;;27.53;33.71
40574;BME280;26283;49.020;8.644;2022-07-18T13:14:20;99778.06;;;27.54;33.39
40574;BME280;26283;49.020;8.644;2022-07-18T13:16:46;99779.69;;;27.55;33.58
40574;BME280;26283;49.020;8.644;2022-07-18T13:19:13;99778.28;;;27.57;33.57
40574;BME280;26283;49.020;8.644;2022-07-18T13:21:40;99779.09;;;27.58;33.84